sensor_id;sensor_type;location;lat;lon;timestamp;P1;durP1;ratioP1;P2;durP2;ratioP2
17618;SDS011;8928;51.678;6.074;2022-09-09T00:02:29;6.10;;;2.50;;
17618;SDS011;8928;51.678;6.074;2022-09-09T00:05:19;5.53;;;2.30;;
17618;SDS011;8928;51.678;6.074;2022-09-09T00:08:17;5.17;;;2.30;;
17618;SDS011;8928;51.678;6.074;2022-09-09T00:11:07;4.50;;;2.47;;
17618;SDS011;8928;51.678;6.074;2022-09-09T00:14:00;3.70;;;2.47;;
17618;SDS011;8928;51.678;6.074;2022-09-09T00:16:55;6.20;;;2.50;;
17618;SDS011;8928;51.678;6.074;2022-09-09T00:19:56;6.70;;;2.70;;
17618;SDS011;8928;51.678;6.074;2022-09-09T00:22:48;5.10;;;2.80;;
17618;SDS011;8928;51.678;6.074;2022-09-09T00:25:42;5.13;;;2.80;;
17618;SDS011;8928;51.678;6.074;2022-09-09T00:28:39;5.43;;;3.00;;
17618;SDS011;8928;51.678;6.074;2022-09-09T00:31:32;6.27;;;3.30;;
17618;SDS011;8928;51.678;6.074;2022-09-09T00:34:21;4.20;;;3.17;;
17618;SDS011;8928;51.678;6.074;2022-09-09T00:37:09;5.27;;;3.00;;
17618;SDS011;8928;51.678;6.074;2022-09-09T00:39:57;6.20;;;3.13;;
17618;SDS011;8928;51.678;6.074;2022-09-09T00:42:48;4.73;;;3.30;;
17618;SDS011;8928;51.678;6.074;2022-09-09T00:45:52;6.80;;;3.40;;
17618;SDS011;8928;51.678;6.074;2022-09-09T00:49:02;8.80;;;3.47;;
17618;SDS011;8928;51.678;6.074;2022-09-09T00:51:59;5.70;;;3.30;;
17618;SDS011;8928;51.678;6.074;2022-09-09T00:54:56;7.87;;;3.33;;
17618;SDS011;8928;51.678;6.074;2022-09-09T00:57:51;5.27;;;3.40;;
17618;SDS011;8928;51.678;6.074;2022-09-09T01:00:40;8.00;;;3.43;;
17618;SDS011;8928;51.678;6.074;2022-09-09T01:03:32;7.07;;;3.70;;
17618;SDS011;8928;51.678;6.074;2022-09-09T01:06:25;8.93;;;4.00;;
17618;SDS011;8928;51.678;6.074;2022-09-09T01:09:17;7.07;;;3.70;;
17618;SDS011;8928;51.678;6.074;2022-09-09T01:12:12;7.93;;;3.40;;
17618;SDS011;8928;51.678;6.074;2022-09-09T01:15:03;7.07;;;3.77;;
17618;SDS011;8928;51.678;6.074;2022-09-09T01:17:58;8.20;;;3.57;;
17618;SDS011;8928;51.678;6.074;2022-09-09T01:20:49;7.83;;;3.50;;
17618;SDS011;8928;51.678;6.074;2022-09-09T01:23:46;8.63;;;3.60;;
17618;SDS011;8928;51.678;6.074;2022-09-09T01:26:48;4.97;;;3.47;;
17618;SDS011;8928;51.678;6.074;2022-09-09T01:29:38;8.10;;;4.00;;
17618;SDS011;8928;51.678;6.074;2022-09-09T01:32:39;6.50;;;3.63;;
17618;SDS011;8928;51.678;6.074;2022-09-09T01:35:33;6.13;;;3.43;;
17618;SDS011;8928;51.678;6.074;2022-09-09T01:38:29;8.77;;;3.67;;
17618;SDS011;8928;51.678;6.074;2022-09-09T01:41:17;7.03;;;3.63;;
17618;SDS011;8928;51.678;6.074;2022-09-09T01:44:06;7.07;;;3.27;;
17618;SDS011;8928;51.678;6.074;2022-09-09T01:46:54;7.53;;;3.70;;
17618;SDS011;8928;51.678;6.074;2022-09-09T01:49:41;8.17;;;3.53;;
17618;SDS011;8928;51.678;6.074;2022-09-09T01:52:28;7.90;;;3.60;;
17618;SDS011;8928;51.678;6.074;2022-09-09T01:55:17;8.27;;;3.43;;
17618;SDS011;8928;51.678;6.074;2022-09-09T01:58:11;6.40;;;3.33;;
17618;SDS011;8928;51.678;6.074;2022-09-09T02:01:10;9.93;;;3.80;;
17618;SDS011;8928;51.678;6.074;2022-09-09T02:04:02;11.20;;;3.90;;
17618;SDS011;8928;51.678;6.074;2022-09-09T02:06:57;6.90;;;3.50;;
17618;SDS011;8928;51.678;6.074;2022-09-09T02:09:44;8.37;;;3.60;;
17618;SDS011;8928;51.678;6.074;2022-09-09T02:12:37;14.83;;;3.53;;
17618;SDS011;8928;51.678;6.074;2022-09-09T02:15:28;9.60;;;3.80;;
17618;SDS011;8928;51.678;6.074;2022-09-09T02:18:21;13.37;;;4.60;;
17618;SDS011;8928;51.678;6.074;2022-09-09T02:21:13;9.00;;;4.23;;
17618;SDS011;8928;51.678;6.074;2022-09-09T02:24:03;12.53;;;5.40;;
17618;SDS011;8928;51.678;6.074;2022-09-09T02:26:55;17.40;;;6.57;;
17618;SDS011;8928;51.678;6.074;2022-09-09T02:29:44;16.57;;;5.80;;
17618;SDS011;8928;51.678;6.074;2022-09-09T02:32:32;13.70;;;6.60;;
17618;SDS011;8928;51.678;6.074;2022-09-09T02:35:23;15.90;;;6.60;;
17618;SDS011;8928;51.678;6.074;2022-09-09T02:38:12;15.23;;;6.60;;
17618;SDS011;8928;51.678;6.074;2022-09-09T02:41:01;17.80;;;6.97;;
17618;SDS011;8928;51.678;6.074;2022-09-09T02:43:49;23.40;;;7.67;;
17618;SDS011;8928;51.678;6.074;2022-09-09T02:46:37;19.67;;;7.50;;
17618;SDS011;8928;51.678;6.074;2022-09-09T02:49:40;26.33;;;7.47;;
17618;SDS011;8928;51.678;6.074;2022-09-09T02:52:40;26.07;;;7.90;;
17618;SDS011;8928;51.678;6.074;2022-09-09T02:55:41;17.60;;;7.90;;
17618;SDS011;8928;51.678;6.074;2022-09-09T02:58:33;22.53;;;8.30;;
17618;SDS011;8928;51.678;6.074;2022-09-09T03:01:21;22.70;;;8.77;;
17618;SDS011;8928;51.678;6.074;2022-09-09T03:04:08;18.90;;;8.60;;
17618;SDS011;8928;51.678;6.074;2022-09-09T03:06:55;27.27;;;8.87;;
17618;SDS011;8928;51.678;6.074;2022-09-09T03:09:44;22.27;;;8.30;;
17618;SDS011;8928;51.678;6.074;2022-09-09T03:12:31;19.97;;;8.37;;
17618;SDS011;8928;51.678;6.074;2022-09-09T03:15:20;21.87;;;8.73;;
17618;SDS011;8928;51.678;6.074;2022-09-09T03:18:07;27.60;;;8.90;;
17618;SDS011;8928;51.678;6.074;2022-09-09T03:20:54;28.77;;;8.53;;
17618;SDS011;8928;51.678;6.074;2022-09-09T03:23:43;23.40;;;8.53;;
17618;SDS011;8928;51.678;6.074;2022-09-09T03:26:32;20.80;;;8.10;;
17618;SDS011;8928;51.678;6.074;2022-09-09T03:29:20;19.93;;;8.17;;
17618;SDS011;8928;51.678;6.074;2022-09-09T03:32:07;23.07;;;7.97;;
17618;SDS011;8928;51.678;6.074;2022-09-09T03:34:55;26.43;;;8.03;;
17618;SDS011;8928;51.678;6.074;2022-09-09T03:37:42;25.60;;;8.40;;
17618;SDS011;8928;51.678;6.074;2022-09-09T03:40:29;21.80;;;8.50;;
17618;SDS011;8928;51.678;6.074;2022-09-09T03:43:18;23.90;;;8.83;;
17618;SDS011;8928;51.678;6.074;2022-09-09T03:46:06;19.27;;;8.10;;
17618;SDS011;8928;51.678;6.074;2022-09-09T03:48:53;22.70;;;8.20;;
17618;SDS011;8928;51.678;6.074;2022-09-09T03:51:42;21.13;;;8.27;;
17618;SDS011;8928;51.678;6.074;2022-09-09T03:54:29;19.03;;;8.00;;
17618;SDS011;8928;51.678;6.074;2022-09-09T03:57:16;18.47;;;7.30;;
17618;SDS011;8928;51.678;6.074;2022-09-09T04:00:05;22.97;;;7.93;;
17618;SDS011;8928;51.678;6.074;2022-09-09T04:02:54;22.20;;;7.33;;
17618;SDS011;8928;51.678;6.074;2022-09-09T04:05:43;17.63;;;6.93;;
17618;SDS011;8928;51.678;6.074;2022-09-09T04:08:30;20.03;;;7.63;;
17618;SDS011;8928;51.678;6.074;2022-09-09T04:11:17;18.67;;;6.57;;
17618;SDS011;8928;51.678;6.074;2022-09-09T04:14:05;23.43;;;6.83;;
17618;SDS011;8928;51.678;6.074;2022-09-09T04:16:53;18.17;;;6.70;;
17618;SDS011;8928;51.678;6.074;2022-09-09T04:19:42;13.90;;;6.77;;
17618;SDS011;8928;51.678;6.074;2022-09-09T04:22:29;18.40;;;7.33;;
17618;SDS011;8928;51.678;6.074;2022-09-09T04:25:17;15.00;;;6.30;;
17618;SDS011;8928;51.678;6.074;2022-09-09T04:28:04;19.63;;;6.60;;
17618;SDS011;8928;51.678;6.074;2022-09-09T04:30:51;19.23;;;6.83;;
17618;SDS011;8928;51.678;6.074;2022-09-09T04:33:40;15.03;;;6.10;;
17618;SDS011;8928;51.678;6.074;2022-09-09T04:36:27;18.70;;;6.63;;
17618;SDS011;8928;51.678;6.074;2022-09-09T04:39:14;17.83;;;6.70;;
17618;SDS011;8928;51.678;6.074;2022-09-09T04:42:01;18.17;;;6.00;;
17618;SDS011;8928;51.678;6.074;2022-09-09T04:44:48;15.53;;;6.37;;
17618;SDS011;8928;51.678;6.074;2022-09-09T04:47:35;16.80;;;6.17;;
17618;SDS011;8928;51.678;6.074;2022-09-09T04:50:23;15.57;;;5.93;;
17618;SDS011;8928;51.678;6.074;2022-09-09T04:53:11;14.00;;;5.90;;
17618;SDS011;8928;51.678;6.074;2022-09-09T04:56:01;19.17;;;6.00;;
17618;SDS011;8928;51.678;6.074;2022-09-09T04:58:50;12.63;;;5.73;;
17618;SDS011;8928;51.678;6.074;2022-09-09T05:01:37;17.47;;;6.20;;
17618;SDS011;8928;51.678;6.074;2022-09-09T05:04:24;15.93;;;5.63;;
17618;SDS011;8928;51.678;6.074;2022-09-09T05:07:12;17.80;;;5.60;;
17618;SDS011;8928;51.678;6.074;2022-09-09T05:10:00;23.33;;;5.40;;
17618;SDS011;8928;51.678;6.074;2022-09-09T05:12:52;16.37;;;5.50;;
17618;SDS011;8928;51.678;6.074;2022-09-09T05:15:39;14.40;;;4.70;;
17618;SDS011;8928;51.678;6.074;2022-09-09T05:18:28;22.03;;;5.23;;
17618;SDS011;8928;51.678;6.074;2022-09-09T05:21:15;14.47;;;4.97;;
17618;SDS011;8928;51.678;6.074;2022-09-09T05:24:05;12.50;;;4.53;;
17618;SDS011;8928;51.678;6.074;2022-09-09T05:26:52;13.03;;;4.83;;
17618;SDS011;8928;51.678;6.074;2022-09-09T05:29:44;16.23;;;4.80;;
17618;SDS011;8928;51.678;6.074;2022-09-09T05:32:31;15.20;;;4.50;;
17618;SDS011;8928;51.678;6.074;2022-09-09T05:35:19;15.60;;;4.63;;
17618;SDS011;8928;51.678;6.074;2022-09-09T05:38:06;18.30;;;4.03;;
17618;SDS011;8928;51.678;6.074;2022-09-09T05:40:55;17.77;;;4.67;;
17618;SDS011;8928;51.678;6.074;2022-09-09T05:43:42;12.20;;;3.90;;
17618;SDS011;8928;51.678;6.074;2022-09-09T05:46:30;14.00;;;4.20;;
17618;SDS011;8928;51.678;6.074;2022-09-09T05:49:17;13.67;;;4.10;;
17618;SDS011;8928;51.678;6.074;2022-09-09T05:52:04;13.50;;;4.33;;
17618;SDS011;8928;51.678;6.074;2022-09-09T05:54:51;14.53;;;4.20;;
17618;SDS011;8928;51.678;6.074;2022-09-09T05:57:43;13.73;;;3.80;;
17618;SDS011;8928;51.678;6.074;2022-09-09T06:00:35;16.53;;;4.50;;
17618;SDS011;8928;51.678;6.074;2022-09-09T06:03:22;13.57;;;4.30;;
17618;SDS011;8928;51.678;6.074;2022-09-09T06:06:10;13.53;;;4.33;;
17618;SDS011;8928;51.678;6.074;2022-09-09T06:08:59;15.63;;;4.10;;
17618;SDS011;8928;51.678;6.074;2022-09-09T06:11:46;16.07;;;4.40;;
17618;SDS011;8928;51.678;6.074;2022-09-09T06:14:34;14.73;;;3.93;;
17618;SDS011;8928;51.678;6.074;2022-09-09T06:17:22;13.70;;;3.70;;
17618;SDS011;8928;51.678;6.074;2022-09-09T06:20:09;14.30;;;4.20;;
17618;SDS011;8928;51.678;6.074;2022-09-09T06:22:56;15.97;;;4.10;;
17618;SDS011;8928;51.678;6.074;2022-09-09T06:25:43;14.17;;;4.00;;
17618;SDS011;8928;51.678;6.074;2022-09-09T06:28:30;16.63;;;4.23;;
17618;SDS011;8928;51.678;6.074;2022-09-09T06:31:19;13.57;;;4.10;;
17618;SDS011;8928;51.678;6.074;2022-09-09T06:34:08;14.27;;;4.03;;
17618;SDS011;8928;51.678;6.074;2022-09-09T06:36:55;17.00;;;4.07;;
17618;SDS011;8928;51.678;6.074;2022-09-09T06:39:43;19.20;;;4.20;;
17618;SDS011;8928;51.678;6.074;2022-09-09T06:42:30;18.50;;;3.90;;
17618;SDS011;8928;51.678;6.074;2022-09-09T06:45:17;13.67;;;3.80;;
17618;SDS011;8928;51.678;6.074;2022-09-09T06:48:06;9.77;;;3.60;;
17618;SDS011;8928;51.678;6.074;2022-09-09T06:51:00;13.93;;;3.87;;
17618;SDS011;8928;51.678;6.074;2022-09-09T06:53:50;14.07;;;4.50;;
17618;SDS011;8928;51.678;6.074;2022-09-09T06:56:38;11.53;;;3.53;;
17618;SDS011;8928;51.678;6.074;2022-09-09T06:59:27;12.07;;;3.70;;
17618;SDS011;8928;51.678;6.074;2022-09-09T07:02:16;16.93;;;3.70;;
17618;SDS011;8928;51.678;6.074;2022-09-09T07:05:05;18.90;;;3.87;;
17618;SDS011;8928;51.678;6.074;2022-09-09T07:07:53;14.47;;;3.30;;
17618;SDS011;8928;51.678;6.074;2022-09-09T07:10:40;18.37;;;3.20;;
17618;SDS011;8928;51.678;6.074;2022-09-09T07:13:29;11.83;;;3.00;;
17618;SDS011;8928;51.678;6.074;2022-09-09T07:16:17;14.40;;;3.20;;
17618;SDS011;8928;51.678;6.074;2022-09-09T07:19:05;10.13;;;2.70;;
17618;SDS011;8928;51.678;6.074;2022-09-09T07:21:54;12.67;;;2.60;;
17618;SDS011;8928;51.678;6.074;2022-09-09T07:24:41;12.40;;;2.40;;
17618;SDS011;8928;51.678;6.074;2022-09-09T07:27:30;12.53;;;2.30;;
17618;SDS011;8928;51.678;6.074;2022-09-09T07:30:17;11.80;;;2.47;;
17618;SDS011;8928;51.678;6.074;2022-09-09T07:33:04;15.80;;;2.40;;
17618;SDS011;8928;51.678;6.074;2022-09-09T07:35:52;17.30;;;2.40;;
17618;SDS011;8928;51.678;6.074;2022-09-09T07:38:41;11.23;;;1.90;;
17618;SDS011;8928;51.678;6.074;2022-09-09T07:41:31;12.17;;;2.60;;
17618;SDS011;8928;51.678;6.074;2022-09-09T07:44:21;12.80;;;2.23;;
17618;SDS011;8928;51.678;6.074;2022-09-09T07:47:12;11.53;;;2.00;;
17618;SDS011;8928;51.678;6.074;2022-09-09T07:49:59;11.67;;;2.10;;
17618;SDS011;8928;51.678;6.074;2022-09-09T07:52:46;10.30;;;1.77;;
17618;SDS011;8928;51.678;6.074;2022-09-09T07:55:35;13.67;;;2.07;;
17618;SDS011;8928;51.678;6.074;2022-09-09T07:58:22;9.57;;;2.07;;
17618;SDS011;8928;51.678;6.074;2022-09-09T08:01:09;12.57;;;1.97;;
17618;SDS011;8928;51.678;6.074;2022-09-09T08:03:58;12.87;;;2.10;;
17618;SDS011;8928;51.678;6.074;2022-09-09T08:06:48;9.90;;;1.80;;
17618;SDS011;8928;51.678;6.074;2022-09-09T08:09:38;9.18;;;1.98;;
17618;SDS011;8928;51.678;6.074;2022-09-09T08:12:26;11.43;;;1.93;;
17618;SDS011;8928;51.678;6.074;2022-09-09T08:15:13;8.38;;;2.10;;
17618;SDS011;8928;51.678;6.074;2022-09-09T08:18:00;8.00;;;1.80;;
17618;SDS011;8928;51.678;6.074;2022-09-09T08:20:47;8.75;;;2.00;;
17618;SDS011;8928;51.678;6.074;2022-09-09T08:23:35;10.23;;;1.83;;
17618;SDS011;8928;51.678;6.074;2022-09-09T08:26:23;10.87;;;1.80;;
17618;SDS011;8928;51.678;6.074;2022-09-09T08:29:14;5.73;;;1.50;;
17618;SDS011;8928;51.678;6.074;2022-09-09T08:32:02;10.05;;;2.00;;
17618;SDS011;8928;51.678;6.074;2022-09-09T08:34:49;12.90;;;1.67;;
17618;SDS011;8928;51.678;6.074;2022-09-09T08:37:36;10.23;;;1.90;;
17618;SDS011;8928;51.678;6.074;2022-09-09T08:40:25;14.98;;;1.90;;
17618;SDS011;8928;51.678;6.074;2022-09-09T08:43:19;8.13;;;1.30;;
17618;SDS011;8928;51.678;6.074;2022-09-09T08:46:11;9.18;;;1.40;;
17618;SDS011;8928;51.678;6.074;2022-09-09T08:49:09;7.20;;;1.30;;
17618;SDS011;8928;51.678;6.074;2022-09-09T08:52:07;5.97;;;1.35;;
17618;SDS011;8928;51.678;6.074;2022-09-09T08:55:02;10.02;;;1.30;;
17618;SDS011;8928;51.678;6.074;2022-09-09T08:58:11;10.00;;;1.70;;
17618;SDS011;8928;51.678;6.074;2022-09-09T09:01:02;12.30;;;1.58;;
17618;SDS011;8928;51.678;6.074;2022-09-09T09:04:05;11.20;;;1.67;;
17618;SDS011;8928;51.678;6.074;2022-09-09T09:07:01;7.57;;;1.30;;
17618;SDS011;8928;51.678;6.074;2022-09-09T09:09:57;9.95;;;1.58;;
17618;SDS011;8928;51.678;6.074;2022-09-09T09:12:50;8.23;;;1.48;;
17618;SDS011;8928;51.678;6.074;2022-09-09T09:15:38;12.23;;;1.50;;
17618;SDS011;8928;51.678;6.074;2022-09-09T09:18:30;10.70;;;1.65;;
17618;SDS011;8928;51.678;6.074;2022-09-09T09:21:20;10.27;;;1.40;;
17618;SDS011;8928;51.678;6.074;2022-09-09T09:24:14;12.20;;;1.48;;
17618;SDS011;8928;51.678;6.074;2022-09-09T09:27:07;9.38;;;1.20;;
17618;SDS011;8928;51.678;6.074;2022-09-09T09:30:00;8.55;;;1.40;;
17618;SDS011;8928;51.678;6.074;2022-09-09T09:32:50;6.97;;;1.40;;
17618;SDS011;8928;51.678;6.074;2022-09-09T09:35:41;6.38;;;1.13;;
17618;SDS011;8928;51.678;6.074;2022-09-09T09:38:28;8.23;;;1.45;;
17618;SDS011;8928;51.678;6.074;2022-09-09T09:41:16;9.75;;;1.48;;
17618;SDS011;8928;51.678;6.074;2022-09-09T09:44:04;10.38;;;1.40;;
17618;SDS011;8928;51.678;6.074;2022-09-09T09:46:52;6.47;;;1.25;;
17618;SDS011;8928;51.678;6.074;2022-09-09T09:49:52;9.55;;;1.38;;
17618;SDS011;8928;51.678;6.074;2022-09-09T09:52:41;11.75;;;1.60;;
17618;SDS011;8928;51.678;6.074;2022-09-09T09:55:30;7.63;;;1.33;;
17618;SDS011;8928;51.678;6.074;2022-09-09T09:58:20;10.07;;;1.30;;
17618;SDS011;8928;51.678;6.074;2022-09-09T10:01:18;12.13;;;1.45;;
17618;SDS011;8928;51.678;6.074;2022-09-09T10:04:14;9.68;;;1.50;;
17618;SDS011;8928;51.678;6.074;2022-09-09T10:07:09;6.68;;;1.38;;
17618;SDS011;8928;51.678;6.074;2022-09-09T10:09:58;7.28;;;1.30;;
17618;SDS011;8928;51.678;6.074;2022-09-09T10:12:48;7.57;;;1.27;;
17618;SDS011;8928;51.678;6.074;2022-09-09T10:15:47;5.72;;;1.27;;
17618;SDS011;8928;51.678;6.074;2022-09-09T10:18:46;6.75;;;1.20;;
17618;SDS011;8928;51.678;6.074;2022-09-09T10:21:48;7.03;;;1.25;;
17618;SDS011;8928;51.678;6.074;2022-09-09T10:25:03;9.45;;;1.52;;
17618;SDS011;8928;51.678;6.074;2022-09-09T10:28:10;7.70;;;1.52;;
17618;SDS011;8928;51.678;6.074;2022-09-09T10:31:16;8.35;;;1.38;;
17618;SDS011;8928;51.678;6.074;2022-09-09T10:34:11;6.43;;;1.20;;
17618;SDS011;8928;51.678;6.074;2022-09-09T10:37:07;12.10;;;1.50;;
17618;SDS011;8928;51.678;6.074;2022-09-09T10:40:14;5.07;;;1.10;;
17618;SDS011;8928;51.678;6.074;2022-09-09T10:43:17;9.23;;;1.15;;
17618;SDS011;8928;51.678;6.074;2022-09-09T10:46:14;12.15;;;1.50;;
17618;SDS011;8928;51.678;6.074;2022-09-09T10:49:13;6.88;;;1.00;;
17618;SDS011;8928;51.678;6.074;2022-09-09T10:52:13;5.43;;;1.00;;
17618;SDS011;8928;51.678;6.074;2022-09-09T10:55:07;6.30;;;1.25;;
17618;SDS011;8928;51.678;6.074;2022-09-09T10:58:02;5.63;;;1.23;;
17618;SDS011;8928;51.678;6.074;2022-09-09T11:00:51;4.25;;;1.20;;
17618;SDS011;8928;51.678;6.074;2022-09-09T11:03:42;6.13;;;1.15;;
17618;SDS011;8928;51.678;6.074;2022-09-09T11:06:34;7.38;;;1.13;;
17618;SDS011;8928;51.678;6.074;2022-09-09T11:09:27;9.32;;;1.27;;
17618;SDS011;8928;51.678;6.074;2022-09-09T11:12:17;6.43;;;1.35;;
17618;SDS011;8928;51.678;6.074;2022-09-09T11:15:09;6.38;;;1.00;;
17618;SDS011;8928;51.678;6.074;2022-09-09T11:18:03;6.78;;;1.27;;
17618;SDS011;8928;51.678;6.074;2022-09-09T11:20:53;9.63;;;1.25;;
17618;SDS011;8928;51.678;6.074;2022-09-09T11:23:45;6.32;;;1.00;;
17618;SDS011;8928;51.678;6.074;2022-09-09T11:26:38;5.57;;;1.00;;
17618;SDS011;8928;51.678;6.074;2022-09-09T11:29:38;9.65;;;1.48;;
17618;SDS011;8928;51.678;6.074;2022-09-09T11:33:02;9.02;;;1.40;;
17618;SDS011;8928;51.678;6.074;2022-09-09T11:36:05;8.00;;;1.30;;
17618;SDS011;8928;51.678;6.074;2022-09-09T11:39:15;7.20;;;1.57;;
17618;SDS011;8928;51.678;6.074;2022-09-09T11:42:28;8.47;;;1.57;;
17618;SDS011;8928;51.678;6.074;2022-09-09T11:45:19;9.17;;;1.77;;
17618;SDS011;8928;51.678;6.074;2022-09-09T11:48:23;7.10;;;1.30;;
17618;SDS011;8928;51.678;6.074;2022-09-09T11:51:26;6.10;;;1.30;;
17618;SDS011;8928;51.678;6.074;2022-09-09T11:54:25;8.87;;;1.40;;
17618;SDS011;8928;51.678;6.074;2022-09-09T11:57:23;13.13;;;1.77;;
17618;SDS011;8928;51.678;6.074;2022-09-09T12:00:27;9.77;;;1.80;;
17618;SDS011;8928;51.678;6.074;2022-09-09T12:03:33;10.27;;;2.00;;
17618;SDS011;8928;51.678;6.074;2022-09-09T12:06:25;7.57;;;1.90;;
17618;SDS011;8928;51.678;6.074;2022-09-09T12:09:18;12.83;;;2.07;;
17618;SDS011;8928;51.678;6.074;2022-09-09T12:12:26;18.73;;;2.47;;
17618;SDS011;8928;51.678;6.074;2022-09-09T12:15:23;9.67;;;2.37;;
17618;SDS011;8928;51.678;6.074;2022-09-09T12:18:14;9.23;;;2.50;;
17618;SDS011;8928;51.678;6.074;2022-09-09T12:21:05;11.57;;;2.80;;
17618;SDS011;8928;51.678;6.074;2022-09-09T12:24:00;8.00;;;2.53;;
17618;SDS011;8928;51.678;6.074;2022-09-09T12:26:52;7.93;;;2.60;;
17618;SDS011;8928;51.678;6.074;2022-09-09T12:29:46;10.67;;;2.90;;
17618;SDS011;8928;51.678;6.074;2022-09-09T12:32:40;10.33;;;3.17;;
17618;SDS011;8928;51.678;6.074;2022-09-09T12:35:29;8.43;;;3.17;;
17618;SDS011;8928;51.678;6.074;2022-09-09T12:38:21;9.27;;;2.90;;
17618;SDS011;8928;51.678;6.074;2022-09-09T12:41:18;8.27;;;2.77;;
17618;SDS011;8928;51.678;6.074;2022-09-09T12:44:08;7.75;;;2.22;;
17618;SDS011;8928;51.678;6.074;2022-09-09T12:50:51;6.53;;;2.50;;
17618;SDS011;8928;51.678;6.074;2022-09-09T12:53:42;7.20;;;2.33;;
17618;SDS011;8928;51.678;6.074;2022-09-09T12:56:31;8.20;;;2.30;;
17618;SDS011;8928;51.678;6.074;2022-09-09T12:59:21;8.77;;;2.45;;
17618;SDS011;8928;51.678;6.074;2022-09-09T13:02:11;5.93;;;2.20;;
17618;SDS011;8928;51.678;6.074;2022-09-09T13:05:13;7.40;;;1.88;;
17618;SDS011;8928;51.678;6.074;2022-09-09T13:08:03;7.22;;;1.92;;
17618;SDS011;8928;51.678;6.074;2022-09-09T13:10:54;5.68;;;1.92;;
17618;SDS011;8928;51.678;6.074;2022-09-09T13:13:49;5.72;;;1.70;;
17618;SDS011;8928;51.678;6.074;2022-09-09T13:16:38;5.03;;;1.70;;
17618;SDS011;8928;51.678;6.074;2022-09-09T13:19:26;5.70;;;1.55;;
17618;SDS011;8928;51.678;6.074;2022-09-09T13:22:20;4.93;;;1.60;;
17618;SDS011;8928;51.678;6.074;2022-09-09T13:25:17;6.97;;;1.55;;
17618;SDS011;8928;51.678;6.074;2022-09-09T13:28:20;8.30;;;1.50;;
17618;SDS011;8928;51.678;6.074;2022-09-09T13:31:19;3.03;;;1.27;;
17618;SDS011;8928;51.678;6.074;2022-09-09T13:34:11;6.28;;;1.60;;
17618;SDS011;8928;51.678;6.074;2022-09-09T13:36:59;4.82;;;1.42;;
17618;SDS011;8928;51.678;6.074;2022-09-09T13:39:50;4.10;;;1.40;;
17618;SDS011;8928;51.678;6.074;2022-09-09T13:42:39;4.43;;;1.40;;
17618;SDS011;8928;51.678;6.074;2022-09-09T13:45:29;8.23;;;1.52;;
17618;SDS011;8928;51.678;6.074;2022-09-09T13:48:17;5.90;;;1.92;;
17618;SDS011;8928;51.678;6.074;2022-09-09T13:54:13;5.32;;;1.50;;
17618;SDS011;8928;51.678;6.074;2022-09-09T13:57:01;8.40;;;1.17;;
17618;SDS011;8928;51.678;6.074;2022-09-09T13:59:50;4.28;;;1.40;;
17618;SDS011;8928;51.678;6.074;2022-09-09T14:02:41;5.25;;;1.35;;
17618;SDS011;8928;51.678;6.074;2022-09-09T14:05:29;6.53;;;1.27;;
17618;SDS011;8928;51.678;6.074;2022-09-09T14:08:22;7.20;;;1.38;;
17618;SDS011;8928;51.678;6.074;2022-09-09T14:11:12;6.75;;;1.50;;
17618;SDS011;8928;51.678;6.074;2022-09-09T14:13:59;6.30;;;1.30;;
17618;SDS011;8928;51.678;6.074;2022-09-09T14:16:46;8.95;;;1.60;;
17618;SDS011;8928;51.678;6.074;2022-09-09T14:19:35;7.05;;;1.27;;
17618;SDS011;8928;51.678;6.074;2022-09-09T14:22:22;6.25;;;1.40;;
17618;SDS011;8928;51.678;6.074;2022-09-09T14:25:10;8.13;;;1.20;;
17618;SDS011;8928;51.678;6.074;2022-09-09T14:27:58;6.63;;;1.30;;
17618;SDS011;8928;51.678;6.074;2022-09-09T14:30:45;8.20;;;1.50;;
17618;SDS011;8928;51.678;6.074;2022-09-09T14:33:32;5.75;;;1.23;;
17618;SDS011;8928;51.678;6.074;2022-09-09T14:36:21;6.25;;;1.40;;
17618;SDS011;8928;51.678;6.074;2022-09-09T14:39:09;8.80;;;1.30;;
17618;SDS011;8928;51.678;6.074;2022-09-09T14:41:56;6.47;;;1.50;;
17618;SDS011;8928;51.678;6.074;2022-09-09T14:44:43;5.90;;;1.40;;
17618;SDS011;8928;51.678;6.074;2022-09-09T14:47:30;6.60;;;1.65;;
17618;SDS011;8928;51.678;6.074;2022-09-09T14:50:17;8.68;;;1.88;;
17618;SDS011;8928;51.678;6.074;2022-09-09T14:53:06;8.55;;;2.10;;
17618;SDS011;8928;51.678;6.074;2022-09-09T14:56:02;8.10;;;1.98;;
17618;SDS011;8928;51.678;6.074;2022-09-09T14:58:50;7.15;;;1.70;;
17618;SDS011;8928;51.678;6.074;2022-09-09T15:01:39;6.03;;;1.60;;
17618;SDS011;8928;51.678;6.074;2022-09-09T15:04:26;7.28;;;1.40;;
17618;SDS011;8928;51.678;6.074;2022-09-09T15:07:13;3.47;;;1.00;;
17618;SDS011;8928;51.678;6.074;2022-09-09T15:10:02;5.43;;;1.23;;
17618;SDS011;8928;51.678;6.074;2022-09-09T15:12:49;4.90;;;1.40;;
17618;SDS011;8928;51.678;6.074;2022-09-09T15:15:36;6.05;;;1.40;;
17618;SDS011;8928;51.678;6.074;2022-09-09T15:18:23;7.15;;;1.63;;
17618;SDS011;8928;51.678;6.074;2022-09-09T15:21:10;6.13;;;1.52;;
17618;SDS011;8928;51.678;6.074;2022-09-09T15:23:58;7.30;;;1.70;;
17618;SDS011;8928;51.678;6.074;2022-09-09T15:26:47;6.95;;;1.90;;
17618;SDS011;8928;51.678;6.074;2022-09-09T15:29:34;8.73;;;1.60;;
17618;SDS011;8928;51.678;6.074;2022-09-09T15:32:21;5.60;;;1.40;;
17618;SDS011;8928;51.678;6.074;2022-09-09T15:35:08;5.78;;;1.42;;
17618;SDS011;8928;51.678;6.074;2022-09-09T15:37:55;4.22;;;1.48;;
17618;SDS011;8928;51.678;6.074;2022-09-09T15:40:42;6.50;;;1.30;;
17618;SDS011;8928;51.678;6.074;2022-09-09T15:43:31;4.30;;;1.20;;
17618;SDS011;8928;51.678;6.074;2022-09-09T15:46:22;5.13;;;1.20;;
17618;SDS011;8928;51.678;6.074;2022-09-09T15:49:13;5.53;;;1.15;;
17618;SDS011;8928;51.678;6.074;2022-09-09T15:52:02;4.38;;;1.20;;
17618;SDS011;8928;51.678;6.074;2022-09-09T15:54:49;3.67;;;1.10;;
17618;SDS011;8928;51.678;6.074;2022-09-09T15:57:36;4.28;;;1.30;;
17618;SDS011;8928;51.678;6.074;2022-09-09T16:00:25;7.95;;;1.60;;
17618;SDS011;8928;51.678;6.074;2022-09-09T16:03:13;7.32;;;1.55;;
17618;SDS011;8928;51.678;6.074;2022-09-09T16:06:00;7.43;;;1.60;;
17618;SDS011;8928;51.678;6.074;2022-09-09T16:08:48;5.97;;;1.60;;
17618;SDS011;8928;51.678;6.074;2022-09-09T16:11:37;7.78;;;1.65;;
17618;SDS011;8928;51.678;6.074;2022-09-09T16:14:25;5.65;;;2.28;;
17618;SDS011;8928;51.678;6.074;2022-09-09T16:17:13;9.60;;;2.22;;
17618;SDS011;8928;51.678;6.074;2022-09-09T16:20:01;7.10;;;2.53;;
17618;SDS011;8928;51.678;6.074;2022-09-09T16:22:48;4.78;;;2.10;;
17618;SDS011;8928;51.678;6.074;2022-09-09T16:25:36;5.88;;;1.05;;
17618;SDS011;8928;51.678;6.074;2022-09-09T16:28:23;8.60;;;0.87;;
17618;SDS011;8928;51.678;6.074;2022-09-09T16:31:11;5.27;;;0.80;;
17618;SDS011;8928;51.678;6.074;2022-09-09T16:34:01;5.47;;;0.70;;
17618;SDS011;8928;51.678;6.074;2022-09-09T16:36:49;5.87;;;0.77;;
17618;SDS011;8928;51.678;6.074;2022-09-09T16:39:36;3.20;;;0.77;;
17618;SDS011;8928;51.678;6.074;2022-09-09T16:42:23;9.80;;;0.90;;
17618;SDS011;8928;51.678;6.074;2022-09-09T16:45:10;5.17;;;0.80;;
17618;SDS011;8928;51.678;6.074;2022-09-09T16:47:58;5.70;;;0.90;;
17618;SDS011;8928;51.678;6.074;2022-09-09T16:50:47;2.60;;;0.80;;
17618;SDS011;8928;51.678;6.074;2022-09-09T16:53:34;4.90;;;0.80;;
17618;SDS011;8928;51.678;6.074;2022-09-09T16:56:22;2.93;;;0.60;;
17618;SDS011;8928;51.678;6.074;2022-09-09T16:59:11;5.87;;;0.70;;
17618;SDS011;8928;51.678;6.074;2022-09-09T17:01:59;5.20;;;0.70;;
17618;SDS011;8928;51.678;6.074;2022-09-09T17:04:50;2.87;;;1.00;;
17618;SDS011;8928;51.678;6.074;2022-09-09T17:07:38;2.73;;;1.00;;
17618;SDS011;8928;51.678;6.074;2022-09-09T17:10:25;3.17;;;0.93;;
17618;SDS011;8928;51.678;6.074;2022-09-09T17:13:12;5.30;;;1.03;;
17618;SDS011;8928;51.678;6.074;2022-09-09T17:16:03;5.03;;;1.10;;
17618;SDS011;8928;51.678;6.074;2022-09-09T17:18:51;3.30;;;1.30;;
17618;SDS011;8928;51.678;6.074;2022-09-09T17:21:39;4.70;;;1.37;;
17618;SDS011;8928;51.678;6.074;2022-09-09T17:24:27;4.00;;;1.40;;
17618;SDS011;8928;51.678;6.074;2022-09-09T17:27:15;4.03;;;1.40;;